createdAt,value
2022-08-07T00:01:44.730Z,34.34
2022-08-07T00:06:29.512Z,34.15
2022-08-07T00:11:35.640Z,34.41
2022-08-07T00:16:52.401Z,34.46
2022-08-07T00:21:57.361Z,34.28
2022-08-07T00:27:07.392Z,34.46
2022-08-07T00:32:13.472Z,34.52
2022-08-07T00:37:17.423Z,34.42
2022-08-07T00:42:19.085Z,34.73
2022-08-07T00:48:07.916Z,34.62
2022-08-07T00:52:53.804Z,34.50
2022-08-07T00:57:56.741Z,34.71
2022-08-07T01:02:58.617Z,34.74
2022-08-07T01:08:00.385Z,34.96
2022-08-07T01:13:02.767Z,35.29
2022-08-07T01:18:05.861Z,35.17
2022-08-07T01:23:13.919Z,35.10
2022-08-07T01:28:17.086Z,35.25
2022-08-07T01:33:22.594Z,35.29
2022-08-07T01:38:29.293Z,35.42
2022-08-07T01:43:38.485Z,35.60
2022-08-07T01:48:46.794Z,35.63
2022-08-07T01:54:12.341Z,35.82
2022-08-07T01:59:30.904Z,35.70
2022-08-07T02:04:56.377Z,35.82
2022-08-07T02:10:03.778Z,35.69
2022-08-07T02:15:12.764Z,35.59
2022-08-07T02:20:23.473Z,35.71
2022-08-07T02:26:10.688Z,35.99
2022-08-07T02:30:55.387Z,36.05
2022-08-07T02:36:30.778Z,35.88
2022-08-07T02:41:22.138Z,35.97
2022-08-07T02:46:31.522Z,36.03
2022-08-07T02:51:42.510Z,36.06
2022-08-07T02:56:55.068Z,35.84
2022-08-07T03:02:02.931Z,36.03
2022-08-07T03:07:18.117Z,35.92
2022-08-07T03:12:30.794Z,36.15
2022-08-07T03:17:53.608Z,35.97
2022-08-07T03:22:58.713Z,36.03
2022-08-07T03:28:09.631Z,35.88
2022-08-07T03:33:24.481Z,35.92
2022-08-07T03:38:36.438Z,36.03
2022-08-07T03:43:44.032Z,35.99
2022-08-07T03:49:03.201Z,36.12
2022-08-07T03:54:35.171Z,36.16
2022-08-07T03:59:32.985Z,36.33
2022-08-07T04:04:35.153Z,36.47
2022-08-07T04:09:45.505Z,36.47
2022-08-07T04:14:58.377Z,36.53
2022-08-07T04:20:05.171Z,37.02
2022-08-07T04:25:12.596Z,36.58
2022-08-07T04:30:35.663Z,36.66
2022-08-07T04:35:50.593Z,36.74
2022-08-07T04:40:56.503Z,36.88
2022-08-07T04:47:07.573Z,36.82
2022-08-07T04:52:51.259Z,37.02
2022-08-07T04:58:34.934Z,36.97
2022-08-07T05:04:06.725Z,37.11
2022-08-07T05:09:42.918Z,37.13
2022-08-07T05:14:59.078Z,36.98
2022-08-07T05:20:09.482Z,36.93
2022-08-07T05:25:36.485Z,36.90
2022-08-07T05:30:39.846Z,36.85
2022-08-07T05:35:43.075Z,36.87
2022-08-07T05:40:50.575Z,36.51
2022-08-07T05:45:57.240Z,36.32
2022-08-07T05:56:06.908Z,36.48
2022-08-07T06:01:16.856Z,36.42
2022-08-07T06:06:24.316Z,36.23
2022-08-07T06:11:34.127Z,36.28
2022-08-07T06:16:38.790Z,36.27
2022-08-07T06:22:14.256Z,36.42
2022-08-07T06:27:05.822Z,36.64
2022-08-07T06:32:09.516Z,36.49
2022-08-07T06:37:17.224Z,36.47
2022-08-07T06:42:38.152Z,36.46
2022-08-07T06:47:56.978Z,36.42
2022-08-07T06:53:04.279Z,36.59
2022-08-07T06:58:11.081Z,36.09
2022-08-07T07:03:48.640Z,36.32
2022-08-07T07:08:49.398Z,36.10
2022-08-07T07:13:58.741Z,36.10
2022-08-07T07:19:37.295Z,36.21
2022-08-07T07:24:28.680Z,36.00
2022-08-07T07:29:39.812Z,35.81
2022-08-07T07:35:04.054Z,35.84
2022-08-07T07:40:14.972Z,35.61
2022-08-07T07:45:19.284Z,35.38
2022-08-07T07:50:33.518Z,35.08
2022-08-07T07:55:45.767Z,35.01
2022-08-07T08:00:58.558Z,35.01
2022-08-07T08:06:01.627Z,34.38
2022-08-07T08:11:06.004Z,34.06
2022-08-07T08:16:18.135Z,34.12
2022-08-07T08:21:59.085Z,33.72
2022-08-07T08:27:09.591Z,33.28
2022-08-07T08:32:18.600Z,33.00
2022-08-07T08:38:01.388Z,32.80
2022-08-07T08:43:04.710Z,32.69
2022-08-07T08:48:46.806Z,32.52
2022-08-07T08:54:11.018Z,31.80
2022-08-07T08:59:18.392Z,31.47
2022-08-07T09:04:55.139Z,31.69
2022-08-07T09:10:08.925Z,31.16
2022-08-07T09:16:20.232Z,31.04
2022-08-07T09:21:06.387Z,29.93
2022-08-07T09:26:39.457Z,30.47
2022-08-07T09:32:18.733Z,29.26
2022-08-07T09:37:53.567Z,29.79
2022-08-07T09:43:40.166Z,29.29
2022-08-07T09:50:01.671Z,28.84
2022-08-07T09:54:54.605Z,28.22
2022-08-07T10:00:05.481Z,28.59
2022-08-07T10:06:00.305Z,28.30
2022-08-07T10:11:59.542Z,28.04
2022-08-07T10:16:59.727Z,27.74
2022-08-07T10:22:36.592Z,27.69
2022-08-07T10:27:57.824Z,27.01
2022-08-07T10:33:03.332Z,26.65
2022-08-07T10:38:48.362Z,27.08
2022-08-07T10:44:07.879Z,26.76
2022-08-07T10:49:49.398Z,26.40
2022-08-07T10:55:26.566Z,25.84
2022-08-07T11:01:11.710Z,26.03
2022-08-07T11:06:21.955Z,25.81
2022-08-07T11:12:02.455Z,25.79
2022-08-07T11:17:23.193Z,25.13
2022-08-07T11:23:11.681Z,25.03
2022-08-07T11:28:25.349Z,25.04
2022-08-07T11:33:58.575Z,24.82
2022-08-07T11:39:10.309Z,24.80
2022-08-07T11:44:52.627Z,24.70
2022-08-07T11:50:30.247Z,24.27
2022-08-07T11:56:14.036Z,24.76
2022-08-07T12:02:00.951Z,24.63
2022-08-07T12:07:27.092Z,24.34
2022-08-07T12:12:37.909Z,24.21
2022-08-07T12:17:59.036Z,24.13
2022-08-07T12:23:21.391Z,24.05
2022-08-07T12:29:03.858Z,24.13
2022-08-07T12:34:11.254Z,23.79
2022-08-07T12:39:42.516Z,23.65
2022-08-07T12:44:42.868Z,23.46
2022-08-07T12:50:38.218Z,23.17
2022-08-07T12:56:02.417Z,22.55
2022-08-07T13:01:23.182Z,23.49
2022-08-07T13:06:54.250Z,23.15
2022-08-07T13:12:56.465Z,23.53
2022-08-07T13:18:11.039Z,21.40
2022-08-07T13:24:00.578Z,22.73
2022-08-07T13:29:13.082Z,22.89
2022-08-07T13:34:35.860Z,22.63
2022-08-07T13:40:35.610Z,22.15
2022-08-07T13:46:12.526Z,21.68
2022-08-07T13:51:01.214Z,21.25
2022-08-07T13:56:05.539Z,21.30
2022-08-07T14:01:13.580Z,21.32
2022-08-07T14:06:16.061Z,20.52
2022-08-07T14:11:22.975Z,21.64
2022-08-07T14:16:32.408Z,21.25
2022-08-07T14:22:04.027Z,20.92
2022-08-07T14:28:11.041Z,20.98
2022-08-07T14:32:54.521Z,20.96
2022-08-07T14:38:05.801Z,20.81
2022-08-07T14:48:37.506Z,20.39
2022-08-07T14:54:08.747Z,19.79
2022-08-07T14:59:13.985Z,19.86
2022-08-07T15:04:33.534Z,19.75
2022-08-07T15:09:59.696Z,19.54
2022-08-07T15:20:55.172Z,19.68
2022-08-07T15:25:59.501Z,19.93
2022-08-07T15:31:06.450Z,19.64
2022-08-07T15:36:09.538Z,19.59
2022-08-07T15:46:49.916Z,19.19
2022-08-07T15:57:00.739Z,19.19
2022-08-07T16:02:04.197Z,19.48
2022-08-07T16:08:30.695Z,19.21
2022-08-07T16:13:04.747Z,19.59
2022-08-07T16:18:49.534Z,19.64
2022-08-07T16:24:34.531Z,19.42
2022-08-07T16:30:30.248Z,19.27
2022-08-07T16:35:51.528Z,19.77
2022-08-07T16:41:17.417Z,19.31
2022-08-07T16:52:51.908Z,19.66
2022-08-07T16:58:01.700Z,19.96
2022-08-07T17:03:58.473Z,19.96
2022-08-07T17:09:13.827Z,19.87
2022-08-07T17:14:23.686Z,20.31
2022-08-07T17:20:02.033Z,20.12
2022-08-07T17:25:16.462Z,20.44
2022-08-07T17:30:20.511Z,20.37
2022-08-07T17:35:54.713Z,20.59
2022-08-07T17:42:01.195Z,20.81
2022-08-07T17:46:54.909Z,20.91
2022-08-07T17:52:10.610Z,20.96
2022-08-07T17:57:58.679Z,20.83
2022-08-07T18:03:00.822Z,21.06
2022-08-07T18:08:23.906Z,21.03
2022-08-07T18:13:51.130Z,21.13
2022-08-07T18:21:02.912Z,21.32
2022-08-07T18:24:40.971Z,21.42
2022-08-07T18:30:30.659Z,21.48
2022-08-07T18:35:57.417Z,22.01
2022-08-07T18:41:16.928Z,21.70
2022-08-07T18:46:32.032Z,21.97
2022-08-07T18:52:52.938Z,22.08
2022-08-07T18:58:14.406Z,22.46
2022-08-07T19:03:37.466Z,22.50
2022-08-07T19:08:55.701Z,22.58
2022-08-07T19:14:51.909Z,22.83
2022-08-07T19:20:03.470Z,22.89
2022-08-07T19:26:22.607Z,23.48
2022-08-07T19:31:04.084Z,23.43
2022-08-07T19:36:00.088Z,23.43
2022-08-07T19:41:02.692Z,23.72
2022-08-07T19:46:10.212Z,23.75
2022-08-07T19:51:20.053Z,23.66
2022-08-07T19:58:01.692Z,23.90
2022-08-07T20:01:57.839Z,23.93
2022-08-07T20:07:01.165Z,24.41
2022-08-07T20:12:34.923Z,24.44
2022-08-07T20:17:27.020Z,24.74
2022-08-07T20:22:33.924Z,25.19
2022-08-07T20:27:45.964Z,24.93
2022-08-07T20:32:53.945Z,25.51
2022-08-07T20:37:59.627Z,25.44
2022-08-07T20:43:09.735Z,25.84
2022-08-07T20:48:30.304Z,26.20
2022-08-07T20:54:03.984Z,26.07
2022-08-07T20:59:05.184Z,26.53
2022-08-07T21:04:22.799Z,26.19
2022-08-07T21:09:53.274Z,26.51
2022-08-07T21:15:03.232Z,26.83
2022-08-07T21:20:09.821Z,26.99
2022-08-07T21:25:20.576Z,27.21
2022-08-07T21:30:32.884Z,27.09
2022-08-07T21:36:05.906Z,27.11
2022-08-07T21:41:24.713Z,27.04
2022-08-07T21:46:40.891Z,27.51
2022-08-07T21:52:09.051Z,27.37
2022-08-07T21:57:44.549Z,27.56
2022-08-07T22:03:17.197Z,27.76
2022-08-07T22:08:56.992Z,27.69
2022-08-07T22:14:05.188Z,27.91
2022-08-07T22:19:29.452Z,27.76
2022-08-07T22:24:37.639Z,28.10
2022-08-07T22:29:54.445Z,28.04
2022-08-07T22:35:02.110Z,28.23
2022-08-07T22:40:13.170Z,28.29
2022-08-07T22:46:21.406Z,28.29
2022-08-07T22:51:22.053Z,28.26
2022-08-07T22:56:47.412Z,28.56
2022-08-07T23:02:22.214Z,28.73
2022-08-07T23:07:41.790Z,28.88
2022-08-07T23:13:07.476Z,28.87
2022-08-07T23:18:42.423Z,29.15
2022-08-07T23:24:11.842Z,29.22
2022-08-07T23:30:35.938Z,29.43
2022-08-07T23:35:22.932Z,29.51
2022-08-07T23:40:53.024Z,29.50
2022-08-07T23:46:14.061Z,29.75
2022-08-07T23:53:16.958Z,29.93
2022-08-07T23:56:54.906Z,30.34
